createdAt,value
2019-03-23T00:00:02.186Z,2.36
2019-03-23T00:03:10.932Z,2.47
2019-03-23T00:06:30.221Z,2.38
2019-03-23T00:09:30.319Z,2.25
2019-03-23T00:12:38.930Z,2.26
2019-03-23T00:15:47.137Z,2.25
2019-03-23T00:18:55.532Z,2.10
2019-03-23T00:22:04.357Z,2.14
2019-03-23T00:25:12.651Z,2.13
2019-03-23T00:28:21.218Z,2.08
2019-03-23T00:31:29.472Z,2.06
2019-03-23T00:34:37.851Z,2.02
2019-03-23T00:37:46.756Z,2.24
2019-03-23T00:40:55.235Z,2.06
2019-03-23T00:44:04.135Z,1.99
2019-03-23T00:47:13.286Z,1.94
2019-03-23T00:50:21.487Z,1.95
2019-03-23T00:53:30.192Z,1.93
2019-03-23T00:56:38.410Z,1.99
2019-03-23T00:59:46.559Z,2.22
2019-03-23T01:02:55.177Z,2.01
2019-03-23T01:06:03.728Z,1.91
2019-03-23T01:09:12.239Z,1.88
2019-03-23T01:12:20.915Z,2.14
2019-03-23T01:15:29.249Z,2.16
2019-03-23T01:18:37.531Z,2.24
2019-03-23T01:21:46.048Z,2.15
2019-03-23T01:24:54.277Z,2.09
2019-03-23T01:28:02.563Z,2.08
2019-03-23T01:31:11.288Z,2.13
2019-03-23T01:34:20.033Z,2.11
2019-03-23T01:37:28.397Z,2.14
2019-03-23T01:40:37.026Z,2.15
2019-03-23T01:43:45.502Z,2.15
2019-03-23T01:46:53.741Z,2.10
2019-03-23T01:50:02.280Z,2.09
2019-03-23T01:53:10.704Z,2.00
2019-03-23T01:56:18.979Z,2.13
2019-03-23T01:59:27.193Z,2.11
2019-03-23T02:02:35.436Z,2.10
2019-03-23T02:05:43.716Z,2.13
2019-03-23T02:08:51.920Z,2.04
2019-03-23T02:12:00.036Z,2.02
2019-03-23T02:15:09.881Z,2.07
2019-03-23T02:18:18.094Z,2.07
2019-03-23T02:21:26.541Z,1.93
2019-03-23T02:24:35.006Z,1.94
2019-03-23T02:27:43.535Z,1.93
2019-03-23T02:30:51.752Z,1.94
2019-03-23T02:33:59.934Z,2.07
2019-03-23T02:37:08.394Z,1.98
2019-03-23T02:40:16.783Z,1.81
2019-03-23T02:43:25.233Z,1.78
2019-03-23T02:46:33.418Z,1.70
2019-03-23T02:49:41.382Z,1.70
2019-03-23T02:52:49.566Z,1.64
2019-03-23T02:55:57.658Z,1.63
2019-03-23T02:59:05.969Z,1.60
2019-03-23T03:02:14.390Z,1.60
2019-03-23T03:05:22.670Z,1.62
2019-03-23T03:08:31.014Z,1.55
2019-03-23T03:11:39.061Z,1.67
2019-03-23T03:14:47.024Z,1.55
2019-03-23T03:17:55.242Z,1.40
2019-03-23T03:21:03.890Z,1.41
2019-03-23T03:24:12.303Z,1.31
2019-03-23T03:27:20.613Z,1.28
2019-03-23T03:30:29.092Z,1.30
2019-03-23T03:33:37.158Z,1.25
2019-03-23T03:36:45.235Z,1.30
2019-03-23T03:39:53.394Z,1.24
2019-03-23T03:43:01.900Z,1.18
2019-03-23T03:46:09.968Z,1.33
2019-03-23T03:49:18.187Z,1.49
2019-03-23T03:52:26.251Z,1.59
2019-03-23T03:55:34.399Z,1.43
2019-03-23T03:58:42.484Z,1.45
2019-03-23T04:01:50.552Z,1.04
2019-03-23T04:04:58.925Z,0.87
2019-03-23T04:08:11.699Z,0.61
2019-03-23T04:11:16.984Z,0.52
2019-03-23T04:14:24.951Z,0.54
2019-03-23T04:17:33.157Z,0.45
2019-03-23T04:20:41.444Z,0.62
2019-03-23T04:23:49.601Z,0.56
2019-03-23T04:26:57.703Z,0.57
2019-03-23T04:30:07.816Z,0.71
2019-03-23T04:33:16.464Z,0.66
2019-03-23T04:36:24.688Z,0.63
2019-03-23T04:39:32.985Z,0.58
2019-03-23T04:42:41.188Z,0.56
2019-03-23T04:45:49.354Z,0.61
2019-03-23T04:48:58.041Z,0.74
2019-03-23T04:52:06.216Z,0.78
2019-03-23T04:55:14.852Z,0.76
2019-03-23T04:58:22.928Z,0.63
2019-03-23T05:01:31.204Z,0.53
2019-03-23T05:04:39.279Z,0.48
2019-03-23T05:07:47.251Z,0.54
2019-03-23T05:10:57.049Z,0.57
2019-03-23T05:14:05.387Z,0.70
2019-03-23T05:17:13.493Z,0.81
2019-03-23T05:20:27.978Z,0.71
2019-03-23T05:23:38.268Z,0.93
2019-03-23T05:26:46.491Z,0.85
2019-03-23T05:29:54.517Z,0.88
2019-03-23T05:33:02.840Z,0.96
2019-03-23T05:36:12.499Z,1.07
2019-03-23T05:39:21.343Z,1.09
2019-03-23T05:42:29.596Z,1.19
2019-03-23T05:45:37.848Z,1.36
2019-03-23T05:48:46.090Z,1.46
2019-03-23T05:51:54.662Z,1.47
2019-03-23T05:55:03.155Z,1.62
2019-03-23T05:58:11.724Z,1.92
2019-03-23T06:01:19.690Z,2.05
2019-03-23T06:04:27.663Z,2.07
2019-03-23T06:07:35.901Z,2.31
2019-03-23T06:10:43.876Z,2.52
2019-03-23T06:13:52.210Z,2.92
2019-03-23T06:17:00.911Z,3.48
2019-03-23T06:20:09.415Z,4.04
2019-03-23T06:23:17.670Z,4.51
2019-03-23T06:26:26.181Z,5.15
2019-03-23T06:29:34.970Z,5.61
2019-03-23T06:32:43.176Z,5.96
2019-03-23T06:35:51.510Z,6.33
2019-03-23T06:39:05.417Z,6.84
2019-03-23T06:42:10.804Z,7.76
2019-03-23T06:45:19.338Z,8.27
2019-03-23T06:48:27.411Z,8.58
2019-03-23T06:51:36.363Z,8.71
2019-03-23T06:54:44.836Z,9.72
2019-03-23T06:57:53.096Z,10.63
2019-03-23T07:01:01.282Z,11.57
2019-03-23T07:04:09.477Z,11.79
2019-03-23T07:07:17.797Z,12.52
2019-03-23T07:10:26.009Z,13.53
2019-03-23T07:13:34.148Z,14.71
2019-03-23T07:16:42.662Z,14.80
2019-03-23T07:19:50.890Z,15.31
2019-03-23T07:26:08.066Z,16.43
2019-03-23T07:29:17.075Z,16.56
2019-03-23T07:32:25.853Z,16.14
2019-03-23T07:35:34.388Z,16.74
2019-03-23T07:38:43.370Z,16.80
2019-03-23T07:41:51.817Z,17.03
2019-03-23T07:45:00.362Z,15.90
2019-03-23T07:48:09.566Z,15.94
2019-03-23T07:51:17.880Z,16.23
2019-03-23T07:54:26.771Z,15.07
2019-03-23T07:57:36.398Z,14.62
2019-03-23T08:00:44.818Z,13.51
2019-03-23T08:03:53.877Z,12.63
2019-03-23T08:07:02.554Z,12.92
2019-03-23T08:10:23.009Z,13.29
2019-03-23T08:13:31.647Z,14.40
2019-03-23T08:16:40.114Z,14.93
2019-03-23T08:19:48.469Z,14.53
2019-03-23T08:22:58.061Z,13.86
2019-03-23T08:26:06.627Z,14.58
2019-03-23T08:29:14.820Z,15.03
2019-03-23T08:32:22.928Z,15.17
2019-03-23T08:35:31.004Z,14.61
2019-03-23T08:38:38.980Z,15.36
2019-03-23T08:41:47.991Z,15.85
2019-03-23T08:44:56.519Z,16.20
2019-03-23T08:48:05.134Z,16.54
2019-03-23T08:51:13.531Z,15.42
2019-03-23T08:54:22.662Z,15.65
2019-03-23T08:57:31.270Z,15.81
2019-03-23T09:00:40.032Z,14.81
2019-03-23T09:03:52.300Z,14.61
2019-03-23T09:06:57.894Z,14.67
2019-03-23T09:10:07.150Z,14.94
2019-03-23T09:13:15.728Z,14.95
2019-03-23T09:16:23.948Z,14.39
2019-03-23T09:19:32.908Z,14.49
2019-03-23T09:22:41.763Z,14.81
2019-03-23T09:25:50.547Z,14.74
2019-03-23T09:28:59.067Z,14.96
2019-03-23T09:32:07.583Z,15.22
2019-03-23T09:35:15.722Z,15.47
2019-03-23T09:38:25.045Z,15.83
2019-03-23T09:41:33.552Z,16.10
2019-03-23T09:44:41.868Z,15.85
2019-03-23T09:47:50.521Z,15.93
2019-03-23T09:50:59.127Z,16.03
2019-03-23T09:54:08.533Z,16.08
2019-03-23T09:57:17.401Z,16.55
2019-03-23T10:00:26.328Z,16.80
2019-03-23T10:03:34.630Z,17.19
2019-03-23T10:06:43.759Z,17.15
2019-03-23T10:09:53.699Z,16.68
2019-03-23T10:13:02.244Z,16.58
2019-03-23T10:16:10.296Z,16.49
2019-03-23T10:19:20.335Z,16.89
2019-03-23T10:22:28.429Z,16.95
2019-03-23T10:25:37.092Z,17.30
2019-03-23T10:28:45.622Z,16.91
2019-03-23T10:31:55.796Z,17.22
2019-03-23T10:35:06.154Z,16.54
2019-03-23T10:38:14.463Z,16.37
2019-03-23T10:41:24.231Z,16.47
2019-03-23T10:44:33.604Z,16.70
2019-03-23T10:47:42.200Z,16.61
2019-03-23T10:50:50.828Z,16.84
2019-03-23T10:54:04.036Z,17.06
2019-03-23T10:57:13.245Z,16.97
2019-03-23T11:00:22.139Z,17.26
2019-03-23T11:03:31.766Z,17.48
2019-03-23T11:06:40.259Z,17.64
2019-03-23T11:09:48.830Z,17.72
2019-03-23T11:12:57.440Z,17.31
2019-03-23T11:16:05.847Z,17.02
2019-03-23T11:19:14.476Z,16.92
2019-03-23T11:22:22.623Z,17.07
2019-03-23T11:25:30.980Z,16.92
2019-03-23T11:28:39.646Z,17.20
2019-03-23T11:31:47.922Z,17.38
2019-03-23T11:34:56.577Z,17.52
2019-03-23T11:38:05.126Z,17.75
2019-03-23T11:41:13.530Z,17.60
2019-03-23T11:44:22.171Z,17.60
2019-03-23T11:47:31.128Z,17.63
2019-03-23T11:50:39.987Z,17.78
2019-03-23T11:53:48.694Z,17.43
2019-03-23T11:56:57.838Z,17.52
2019-03-23T12:00:10.073Z,17.67
2019-03-23T12:03:18.946Z,17.77
2019-03-23T12:06:27.681Z,17.96
2019-03-23T12:09:36.321Z,17.68
2019-03-23T12:12:44.557Z,17.78
2019-03-23T12:15:53.066Z,17.95
2019-03-23T12:19:01.616Z,18.05
2019-03-23T12:22:10.392Z,18.08
2019-03-23T12:25:18.657Z,18.16
2019-03-23T12:28:27.168Z,18.17
2019-03-23T12:31:35.761Z,18.29
2019-03-23T12:34:44.152Z,18.29
2019-03-23T12:37:58.640Z,18.17
2019-03-23T12:41:18.487Z,17.57
2019-03-23T12:44:18.223Z,17.55
2019-03-23T12:47:27.250Z,17.68
2019-03-23T12:50:36.176Z,18.04
2019-03-23T12:53:44.876Z,17.87
2019-03-23T12:56:54.217Z,18.06
2019-03-23T13:00:03.704Z,18.18
2019-03-23T13:03:11.959Z,18.26
2019-03-23T13:06:20.116Z,18.13
2019-03-23T13:09:28.727Z,18.26
2019-03-23T13:12:37.984Z,18.04
2019-03-23T13:15:46.393Z,17.97
2019-03-23T13:18:55.173Z,17.94
2019-03-23T13:22:03.997Z,17.93
2019-03-23T13:25:12.296Z,17.94
2019-03-23T13:28:20.971Z,18.02
2019-03-23T13:31:29.540Z,18.11
2019-03-23T13:34:37.896Z,18.06
2019-03-23T13:37:47.609Z,18.19
2019-03-23T13:40:56.603Z,18.23
2019-03-23T13:44:05.841Z,18.17
2019-03-23T13:47:17.235Z,18.13
2019-03-23T13:50:29.599Z,18.11
2019-03-23T13:53:38.126Z,18.38
2019-03-23T13:56:46.594Z,18.46
2019-03-23T13:59:55.443Z,18.24
2019-03-23T14:03:04.139Z,18.21
2019-03-23T14:06:13.004Z,18.07
2019-03-23T14:09:21.642Z,18.18
2019-03-23T14:12:30.421Z,18.15
2019-03-23T14:15:38.763Z,18.13
2019-03-23T14:18:47.562Z,18.08
2019-03-23T14:21:57.008Z,18.31
2019-03-23T14:25:06.637Z,18.40
2019-03-23T14:28:15.020Z,18.40
2019-03-23T14:31:24.570Z,18.41
2019-03-23T14:34:32.933Z,18.29
2019-03-23T14:37:41.241Z,18.19
2019-03-23T14:40:49.398Z,18.06
2019-03-23T14:43:57.936Z,18.03
2019-03-23T14:47:06.429Z,18.15
2019-03-23T14:50:15.323Z,18.14
2019-03-23T14:53:24.524Z,17.96
2019-03-23T14:56:33.320Z,18.07
2019-03-23T14:59:41.715Z,18.03
2019-03-23T15:02:50.340Z,18.03
2019-03-23T15:05:58.573Z,17.96
2019-03-23T15:09:07.880Z,18.01
2019-03-23T15:12:16.948Z,18.04
2019-03-23T15:15:25.363Z,18.08
2019-03-23T15:18:33.944Z,18.00
2019-03-23T15:21:42.427Z,17.93
2019-03-23T15:24:50.585Z,17.98
2019-03-23T15:27:58.698Z,17.90
2019-03-23T15:31:10.434Z,18.02
2019-03-23T15:34:19.337Z,17.85
2019-03-23T15:37:27.431Z,17.83
2019-03-23T15:40:36.401Z,17.81
2019-03-23T15:43:44.899Z,17.68
2019-03-23T15:46:53.341Z,17.52
2019-03-23T15:50:01.588Z,17.46
2019-03-23T15:53:09.839Z,17.35
2019-03-23T15:56:17.858Z,17.27
2019-03-23T15:59:26.287Z,17.29
2019-03-23T16:02:34.580Z,17.18
2019-03-23T16:05:42.867Z,17.16
2019-03-23T16:08:51.026Z,17.00
2019-03-23T16:11:59.980Z,16.94
2019-03-23T16:15:09.873Z,16.88
2019-03-23T16:18:18.095Z,16.74
2019-03-23T16:21:26.610Z,16.70
2019-03-23T16:24:34.849Z,16.58
2019-03-23T16:27:43.343Z,16.58
2019-03-23T16:30:51.532Z,16.33
2019-03-23T16:34:00.193Z,16.23
2019-03-23T16:37:08.903Z,16.08
2019-03-23T16:40:17.557Z,15.96
2019-03-23T16:43:26.119Z,15.86
2019-03-23T16:46:34.485Z,15.92
2019-03-23T16:49:42.851Z,15.79
2019-03-23T16:52:51.109Z,15.65
2019-03-23T16:55:59.661Z,15.49
2019-03-23T16:59:08.443Z,15.45
2019-03-23T17:02:16.634Z,15.17
2019-03-23T17:05:25.226Z,15.01
2019-03-23T17:08:33.627Z,14.93
2019-03-23T17:11:41.816Z,14.55
2019-03-23T17:14:50.019Z,14.50
2019-03-23T17:17:58.035Z,14.41
2019-03-23T17:21:06.240Z,14.15
2019-03-23T17:24:14.450Z,13.85
2019-03-23T17:27:22.777Z,13.50
2019-03-23T17:30:31.491Z,13.28
2019-03-23T17:33:39.944Z,12.93
2019-03-23T17:36:48.161Z,12.65
2019-03-23T17:39:56.349Z,12.42
2019-03-23T17:43:06.226Z,12.22
2019-03-23T17:46:14.407Z,12.06
2019-03-23T17:49:22.716Z,11.88
2019-03-23T17:52:31.660Z,11.82
2019-03-23T17:55:40.300Z,11.63
2019-03-23T17:58:49.420Z,11.46
2019-03-23T18:01:58.653Z,11.37
2019-03-23T18:05:07.924Z,11.19
2019-03-23T18:08:16.604Z,11.00
2019-03-23T18:11:25.141Z,10.82
2019-03-23T18:14:33.570Z,10.69
2019-03-23T18:17:41.910Z,10.55
2019-03-23T18:20:50.168Z,10.36
2019-03-23T18:23:58.702Z,10.21
2019-03-23T18:27:06.880Z,10.03
2019-03-23T18:30:38.926Z,9.90
2019-03-23T18:33:47.430Z,9.79
2019-03-23T18:36:57.054Z,9.75
2019-03-23T18:40:08.175Z,9.69
2019-03-23T18:43:26.704Z,9.56
2019-03-23T18:46:26.624Z,9.39
2019-03-23T18:49:35.234Z,9.23
2019-03-23T18:52:43.759Z,9.14
2019-03-23T18:55:52.366Z,9.32
2019-03-23T18:59:01.837Z,9.22
2019-03-23T19:02:10.534Z,9.07
2019-03-23T19:05:19.256Z,8.88
2019-03-23T19:08:27.979Z,8.83
2019-03-23T19:11:36.416Z,8.74
2019-03-23T19:14:45.014Z,8.56
2019-03-23T19:17:53.340Z,8.45
2019-03-23T19:21:02.429Z,8.35
2019-03-23T19:24:11.027Z,8.21
2019-03-23T19:27:19.581Z,8.15
2019-03-23T19:30:28.308Z,8.08
2019-03-23T19:33:36.629Z,8.33
2019-03-23T19:36:44.738Z,8.06
2019-03-23T19:39:53.531Z,7.92
2019-03-23T19:43:01.988Z,7.82
2019-03-23T19:46:10.840Z,7.66
2019-03-23T19:49:19.207Z,7.63
2019-03-23T19:52:27.597Z,7.56
2019-03-23T19:55:36.389Z,7.46
2019-03-23T19:58:45.411Z,7.33
2019-03-23T20:01:53.888Z,7.28
2019-03-23T20:05:03.071Z,7.24
2019-03-23T20:08:12.083Z,7.17
2019-03-23T20:11:20.773Z,7.15
2019-03-23T20:14:29.746Z,7.08
2019-03-23T20:17:38.981Z,6.94
2019-03-23T20:20:47.679Z,6.81
2019-03-23T20:23:56.636Z,6.60
2019-03-23T20:27:05.056Z,6.59
2019-03-23T20:30:16.305Z,6.59
2019-03-23T20:33:24.700Z,6.61
2019-03-23T20:36:32.951Z,6.56
2019-03-23T20:39:41.845Z,6.44
2019-03-23T20:42:50.613Z,6.54
2019-03-23T20:45:59.672Z,6.45
2019-03-23T20:49:08.003Z,6.48
2019-03-23T20:52:16.761Z,6.35
2019-03-23T20:55:30.130Z,6.43
2019-03-23T20:58:38.699Z,6.36
2019-03-23T21:01:47.639Z,6.26
2019-03-23T21:04:56.192Z,6.18
2019-03-23T21:08:05.171Z,6.12
2019-03-23T21:11:13.858Z,6.08
2019-03-23T21:14:22.495Z,6.13
2019-03-23T21:17:30.957Z,6.09
2019-03-23T21:20:39.372Z,6.05
2019-03-23T21:23:48.250Z,5.98
2019-03-23T21:26:56.812Z,5.96
2019-03-23T21:30:08.911Z,5.93
2019-03-23T21:33:17.539Z,5.81
2019-03-23T21:36:26.902Z,5.87
2019-03-23T21:39:35.048Z,5.71
2019-03-23T21:42:43.373Z,5.70
2019-03-23T21:45:51.863Z,5.64
2019-03-23T21:49:03.050Z,5.62
2019-03-23T21:52:12.149Z,5.71
2019-03-23T21:55:20.523Z,5.62
2019-03-23T21:58:29.218Z,5.53
2019-03-23T22:01:37.597Z,5.54
2019-03-23T22:04:46.267Z,5.57
2019-03-23T22:07:55.085Z,5.61
2019-03-23T22:11:03.700Z,5.68
2019-03-23T22:14:12.027Z,5.56
2019-03-23T22:17:20.330Z,5.39
2019-03-23T22:20:31.756Z,5.39
2019-03-23T22:23:41.956Z,5.27
2019-03-23T22:26:50.887Z,5.38
2019-03-23T22:29:59.342Z,5.38
2019-03-23T22:33:10.817Z,5.39
2019-03-23T22:36:19.140Z,5.50
2019-03-23T22:39:27.668Z,5.38
2019-03-23T22:42:36.608Z,5.35
2019-03-23T22:45:45.399Z,5.31
2019-03-23T22:48:56.003Z,5.16
2019-03-23T22:52:05.003Z,5.14
2019-03-23T22:55:13.217Z,5.22
2019-03-23T22:58:21.798Z,5.24
2019-03-23T23:01:30.111Z,5.14
2019-03-23T23:04:38.679Z,5.03
2019-03-23T23:07:47.165Z,5.01
2019-03-23T23:10:56.190Z,4.90
2019-03-23T23:14:04.898Z,5.02
2019-03-23T23:17:13.460Z,4.85
2019-03-23T23:20:21.956Z,4.83
2019-03-23T23:23:30.792Z,4.71
2019-03-23T23:26:39.147Z,4.74
2019-03-23T23:29:47.547Z,4.60
2019-03-23T23:32:56.088Z,4.60
2019-03-23T23:36:04.801Z,4.58
2019-03-23T23:39:13.140Z,4.54
2019-03-23T23:42:21.391Z,4.41
2019-03-23T23:45:29.614Z,4.35
2019-03-23T23:48:37.754Z,4.62
2019-03-23T23:51:50.069Z,4.39
2019-03-23T23:54:56.145Z,4.36
2019-03-23T23:58:05.167Z,4.28
